createdAt,value
2018-12-22T00:02:48.534Z,10.20
2018-12-22T00:08:53.378Z,8.57
2018-12-22T00:14:58.991Z,8.90
2018-12-22T00:21:03.879Z,9.27
2018-12-22T00:27:08.808Z,8.07
2018-12-22T00:33:15.670Z,8.80
2018-12-22T00:39:20.431Z,8.37
2018-12-22T00:45:25.413Z,8.53
2018-12-22T00:51:30.508Z,8.57
2018-12-22T00:57:35.532Z,8.70
2018-12-22T01:03:41.023Z,9.37
2018-12-22T01:09:46.036Z,8.63
2018-12-22T01:15:51.051Z,7.90
2018-12-22T01:21:55.828Z,8.63
2018-12-22T01:28:00.567Z,7.87
2018-12-22T01:34:05.688Z,9.17
2018-12-22T01:40:10.519Z,8.70
2018-12-22T01:46:16.970Z,7.57
2018-12-22T01:52:21.833Z,8.93
2018-12-22T01:58:26.570Z,7.53
2018-12-22T02:04:35.387Z,8.13
2018-12-22T02:10:40.103Z,8.27
2018-12-22T02:16:45.050Z,8.60
2018-12-22T02:22:49.809Z,8.10
2018-12-22T02:28:56.795Z,7.77
2018-12-22T02:35:01.396Z,8.70
2018-12-22T02:41:07.126Z,8.73
2018-12-22T02:47:11.924Z,8.63
2018-12-22T02:53:16.704Z,8.77
2018-12-22T02:59:21.393Z,7.67
2018-12-22T03:05:26.135Z,7.50
2018-12-22T03:11:31.436Z,7.53
2018-12-22T03:17:36.189Z,7.67
2018-12-22T03:23:41.435Z,7.30
2018-12-22T03:29:46.302Z,6.77
2018-12-22T03:35:51.001Z,7.13
2018-12-22T03:41:55.718Z,7.17
2018-12-22T03:48:00.707Z,6.27
2018-12-22T03:54:05.771Z,6.77
2018-12-22T04:00:10.897Z,6.00
2018-12-22T04:06:15.708Z,5.73
2018-12-22T04:12:20.483Z,5.23
2018-12-22T04:18:25.202Z,4.63
2018-12-22T04:24:29.914Z,4.70
2018-12-22T04:30:34.831Z,4.30
2018-12-22T04:36:39.521Z,4.00
2018-12-22T04:42:44.577Z,3.60
2018-12-22T04:48:49.678Z,2.93
2018-12-22T04:54:54.412Z,2.50
2018-12-22T05:00:59.449Z,3.47
2018-12-22T05:07:04.262Z,4.80
2018-12-22T05:13:08.982Z,3.43
2018-12-22T05:19:13.665Z,3.23
2018-12-22T05:25:18.444Z,3.57
2018-12-22T05:31:23.417Z,3.70
2018-12-22T05:37:28.116Z,5.20
2018-12-22T05:43:32.873Z,5.13
2018-12-22T05:49:37.593Z,4.20
2018-12-22T05:55:42.342Z,5.03
2018-12-22T06:01:47.701Z,5.60
2018-12-22T06:07:52.647Z,4.80
2018-12-22T06:13:57.493Z,4.77
2018-12-22T06:20:02.693Z,3.70
2018-12-22T06:26:07.387Z,2.60
2018-12-22T06:32:12.286Z,2.20
2018-12-22T06:38:16.973Z,2.13
2018-12-22T06:44:21.683Z,1.70
2018-12-22T06:50:26.462Z,1.27
2018-12-22T06:56:31.196Z,1.10
2018-12-22T07:02:37.209Z,0.87
2018-12-22T07:08:41.902Z,0.70
2018-12-22T07:14:47.315Z,0.80
2018-12-22T07:20:52.253Z,0.73
2018-12-22T07:26:57.367Z,0.90
2018-12-22T07:33:02.258Z,0.60
2018-12-22T07:39:09.109Z,0.80
2018-12-22T07:45:14.361Z,1.00
2018-12-22T07:51:19.591Z,0.80
2018-12-22T07:57:24.302Z,0.80
2018-12-22T08:03:29.235Z,1.10
2018-12-22T08:09:34.313Z,1.27
2018-12-22T08:15:39.486Z,1.13
2018-12-22T08:21:44.357Z,1.90
2018-12-22T08:27:49.288Z,1.63
2018-12-22T08:33:54.296Z,1.77
2018-12-22T08:39:59.235Z,1.67
2018-12-22T08:46:04.086Z,1.50
2018-12-22T08:52:08.901Z,1.53
2018-12-22T08:58:13.885Z,1.57
2018-12-22T09:04:18.872Z,2.10
2018-12-22T09:10:23.753Z,1.40
2018-12-22T09:16:29.250Z,1.73
2018-12-22T09:22:34.349Z,1.47
2018-12-22T09:28:39.211Z,1.67
2018-12-22T09:34:44.233Z,1.40
2018-12-22T09:40:49.398Z,2.07
2018-12-22T09:46:54.489Z,2.37
2018-12-22T09:52:59.275Z,1.73
2018-12-22T09:59:06.361Z,2.10
2018-12-22T10:05:11.108Z,2.17
2018-12-22T10:11:15.967Z,3.37
2018-12-22T10:17:20.889Z,2.27
2018-12-22T10:23:26.241Z,2.13
2018-12-22T10:29:31.111Z,1.77
2018-12-22T10:35:36.027Z,2.53
2018-12-22T10:41:41.228Z,2.03
2018-12-22T10:47:47.106Z,3.23
2018-12-22T10:53:51.997Z,2.37
2018-12-22T10:59:57.023Z,2.07
2018-12-22T11:06:01.893Z,3.40
2018-12-22T11:12:07.173Z,3.63
2018-12-22T11:18:12.130Z,3.00
2018-12-22T11:24:17.244Z,3.13
2018-12-22T11:30:29.602Z,3.03
2018-12-22T11:36:34.573Z,3.07
2018-12-22T11:42:47.418Z,1.87
2018-12-22T11:48:59.579Z,2.80
2018-12-22T11:55:04.700Z,2.13
2018-12-22T12:01:09.579Z,2.20
2018-12-22T12:07:14.912Z,3.40
2018-12-22T12:13:19.780Z,3.43
2018-12-22T12:19:28.393Z,4.60
2018-12-22T12:25:33.113Z,5.30
2018-12-22T12:31:38.041Z,4.47
2018-12-22T12:37:42.804Z,4.33
2018-12-22T12:43:47.559Z,3.40
2018-12-22T12:49:52.350Z,3.13
2018-12-22T12:55:57.081Z,3.30
2018-12-22T13:02:03.862Z,3.40
2018-12-22T13:08:09.194Z,3.20
2018-12-22T13:14:20.737Z,2.00
2018-12-22T13:20:26.726Z,1.50
2018-12-22T13:26:36.732Z,1.70
2018-12-22T13:32:38.290Z,1.73
2018-12-22T13:38:51.705Z,1.33
2018-12-22T13:44:56.612Z,1.83
2018-12-22T13:51:01.995Z,2.43
2018-12-22T13:57:07.289Z,3.53
2018-12-22T14:03:16.350Z,3.00
2018-12-22T14:09:21.248Z,1.60
2018-12-22T14:15:26.276Z,1.00
2018-12-22T14:21:31.713Z,1.10
2018-12-22T14:27:36.537Z,0.90
2018-12-22T14:33:42.802Z,1.20
2018-12-22T14:39:47.631Z,1.33
2018-12-22T14:45:53.127Z,1.70
2018-12-22T14:51:58.280Z,1.40
2018-12-22T14:58:15.242Z,1.97
2018-12-22T15:04:20.087Z,1.60
2018-12-22T15:10:24.929Z,2.20
2018-12-22T15:16:29.688Z,1.57
2018-12-22T15:22:35.008Z,2.00
2018-12-22T15:28:47.029Z,2.80
2018-12-22T15:34:46.815Z,1.93
2018-12-22T15:40:51.605Z,2.50
2018-12-22T15:46:56.604Z,2.47
2018-12-22T15:53:02.111Z,2.43
2018-12-22T15:59:07.258Z,3.27
2018-12-22T16:05:12.727Z,3.40
2018-12-22T16:11:17.817Z,3.40
2018-12-22T16:17:22.830Z,3.60
2018-12-22T16:23:28.456Z,3.37
2018-12-22T16:31:03.893Z,3.33
2018-12-22T16:37:08.626Z,3.03
2018-12-22T16:43:16.023Z,2.90
2018-12-22T16:49:21.045Z,2.63
2018-12-22T16:55:25.886Z,3.13
2018-12-22T17:02:27.672Z,3.03
2018-12-22T17:08:32.546Z,3.53
2018-12-22T17:14:37.320Z,4.07
2018-12-22T17:20:42.223Z,3.73
2018-12-22T17:26:47.890Z,4.33
2018-12-22T17:32:52.767Z,5.27
2018-12-22T17:38:57.732Z,4.37
2018-12-22T17:45:02.530Z,4.20
2018-12-22T17:51:07.265Z,4.70
2018-12-22T17:57:12.269Z,4.30
2018-12-22T18:03:18.160Z,4.50
2018-12-22T18:09:23.105Z,5.23
2018-12-22T18:15:28.252Z,4.97
2018-12-22T18:21:33.329Z,5.13
2018-12-22T18:27:38.188Z,5.20
2018-12-22T18:33:43.123Z,4.63
2018-12-22T18:39:47.993Z,4.77
2018-12-22T18:45:52.790Z,5.20
2018-12-22T18:51:57.637Z,4.50
2018-12-22T18:58:05.021Z,5.50
2018-12-22T19:04:10.107Z,6.33
2018-12-22T19:10:21.376Z,5.70
2018-12-22T19:16:26.585Z,6.13
2018-12-22T19:22:31.287Z,5.37
2018-12-22T19:28:36.117Z,5.30
2018-12-22T19:34:41.115Z,4.40
2018-12-22T19:40:46.290Z,3.10
2018-12-22T19:46:51.220Z,3.27
2018-12-22T19:52:56.302Z,3.10
2018-12-22T19:59:01.223Z,3.93
2018-12-22T20:05:06.960Z,4.17
2018-12-22T20:11:11.712Z,5.83
2018-12-22T20:17:16.660Z,4.90
2018-12-22T20:23:21.938Z,5.13
2018-12-22T20:29:26.823Z,4.77
2018-12-22T20:35:31.705Z,5.70
2018-12-22T20:41:36.733Z,5.60
2018-12-22T20:47:41.546Z,5.53
2018-12-22T20:53:46.693Z,6.20
2018-12-22T20:59:51.567Z,6.13
2018-12-22T21:06:01.860Z,5.40
2018-12-22T21:12:06.771Z,7.27
2018-12-22T21:18:11.545Z,6.03
2018-12-22T21:24:16.499Z,5.50
2018-12-22T21:30:21.363Z,7.23
2018-12-22T21:36:26.389Z,6.10
2018-12-22T21:42:31.315Z,6.97
2018-12-22T21:48:36.337Z,6.77
2018-12-22T21:54:41.126Z,6.40
2018-12-22T22:00:45.977Z,7.03
2018-12-22T22:06:51.177Z,6.27
2018-12-22T22:12:56.454Z,6.20
2018-12-22T22:19:02.052Z,6.20
2018-12-22T22:25:07.067Z,7.07
2018-12-22T22:31:11.909Z,7.80
2018-12-22T22:37:16.682Z,7.93
2018-12-22T22:43:21.466Z,6.87
2018-12-22T22:49:26.232Z,7.43
2018-12-22T22:55:32.669Z,6.97
2018-12-22T23:01:37.432Z,6.53
2018-12-22T23:07:42.186Z,7.07
2018-12-22T23:13:53.555Z,7.97
2018-12-22T23:19:58.351Z,8.07
2018-12-22T23:26:03.223Z,7.97
2018-12-22T23:32:08.157Z,7.40
2018-12-22T23:38:13.088Z,6.40
2018-12-22T23:44:17.961Z,7.83
2018-12-22T23:50:22.901Z,7.43
2018-12-22T23:56:27.972Z,7.27
